sensor_id;sensor_type;location;lat;lon;timestamp;P1;durP1;ratioP1;P2;durP2;ratioP2
32186;SDS011;18686;53.084;8.872;2023-06-10T00:00:00;8.10;;;3.63;;
32186;SDS011;18686;53.084;8.872;2023-06-10T00:02:39;5.90;;;3.38;;
32186;SDS011;18686;53.084;8.872;2023-06-10T00:05:26;7.22;;;3.00;;
32186;SDS011;18686;53.084;8.872;2023-06-10T00:08:14;10.77;;;4.30;;
32186;SDS011;18686;53.084;8.872;2023-06-10T00:10:46;11.65;;;3.80;;
32186;SDS011;18686;53.084;8.872;2023-06-10T00:13:32;8.32;;;3.75;;
32186;SDS011;18686;53.084;8.872;2023-06-10T00:16:01;8.43;;;4.70;;
32186;SDS011;18686;53.084;8.872;2023-06-10T00:18:31;7.55;;;3.30;;
32186;SDS011;18686;53.084;8.872;2023-06-10T00:20:59;9.73;;;3.70;;
32186;SDS011;18686;53.084;8.872;2023-06-10T00:23:32;10.20;;;4.00;;
32186;SDS011;18686;53.084;8.872;2023-06-10T00:26:22;9.15;;;4.68;;
32186;SDS011;18686;53.084;8.872;2023-06-10T00:28:51;10.70;;;4.38;;
32186;SDS011;18686;53.084;8.872;2023-06-10T00:31:20;10.07;;;3.55;;
32186;SDS011;18686;53.084;8.872;2023-06-10T00:33:50;9.10;;;4.15;;
32186;SDS011;18686;53.084;8.872;2023-06-10T00:36:18;9.75;;;3.95;;
32186;SDS011;18686;53.084;8.872;2023-06-10T00:38:46;12.02;;;4.30;;
32186;SDS011;18686;53.084;8.872;2023-06-10T00:41:15;9.18;;;4.65;;
32186;SDS011;18686;53.084;8.872;2023-06-10T00:44:02;14.48;;;8.40;;
32186;SDS011;18686;53.084;8.872;2023-06-10T00:46:30;34.83;;;22.25;;
32186;SDS011;18686;53.084;8.872;2023-06-10T00:49:01;12.20;;;6.05;;
32186;SDS011;18686;53.084;8.872;2023-06-10T00:51:29;11.70;;;5.10;;
32186;SDS011;18686;53.084;8.872;2023-06-10T00:53:58;11.32;;;4.47;;
32186;SDS011;18686;53.084;8.872;2023-06-10T00:56:26;12.68;;;4.80;;
32186;SDS011;18686;53.084;8.872;2023-06-10T00:59:13;11.68;;;4.80;;
32186;SDS011;18686;53.084;8.872;2023-06-10T01:02:00;10.20;;;4.10;;
32186;SDS011;18686;53.084;8.872;2023-06-10T01:04:50;9.85;;;4.15;;
32186;SDS011;18686;53.084;8.872;2023-06-10T01:07:21;9.68;;;4.72;;
32186;SDS011;18686;53.084;8.872;2023-06-10T01:09:54;9.27;;;4.68;;
32186;SDS011;18686;53.084;8.872;2023-06-10T01:12:46;10.98;;;4.32;;
32186;SDS011;18686;53.084;8.872;2023-06-10T01:15:21;13.95;;;4.65;;
32186;SDS011;18686;53.084;8.872;2023-06-10T01:17:53;11.60;;;5.13;;
32186;SDS011;18686;53.084;8.872;2023-06-10T01:20:44;10.45;;;4.60;;
32186;SDS011;18686;53.084;8.872;2023-06-10T01:23:32;12.43;;;4.38;;
32186;SDS011;18686;53.084;8.872;2023-06-10T01:26:02;9.80;;;4.25;;
32186;SDS011;18686;53.084;8.872;2023-06-10T01:28:36;10.77;;;4.60;;
32186;SDS011;18686;53.084;8.872;2023-06-10T01:31:16;7.95;;;4.53;;
32186;SDS011;18686;53.084;8.872;2023-06-10T01:33:52;7.70;;;4.50;;
32186;SDS011;18686;53.084;8.872;2023-06-10T01:36:39;11.77;;;4.65;;
32186;SDS011;18686;53.084;8.872;2023-06-10T01:39:28;11.52;;;5.43;;
32186;SDS011;18686;53.084;8.872;2023-06-10T01:42:15;10.13;;;4.38;;
32186;SDS011;18686;53.084;8.872;2023-06-10T01:44:44;13.38;;;5.22;;
32186;SDS011;18686;53.084;8.872;2023-06-10T01:47:12;9.23;;;4.72;;
32186;SDS011;18686;53.084;8.872;2023-06-10T01:49:59;10.43;;;4.65;;
32186;SDS011;18686;53.084;8.872;2023-06-10T01:52:46;13.18;;;5.25;;
32186;SDS011;18686;53.084;8.872;2023-06-10T01:55:34;11.90;;;4.93;;
32186;SDS011;18686;53.084;8.872;2023-06-10T01:58:21;12.70;;;4.75;;
32186;SDS011;18686;53.084;8.872;2023-06-10T02:01:08;10.23;;;5.20;;
32186;SDS011;18686;53.084;8.872;2023-06-10T02:03:55;9.63;;;4.75;;
32186;SDS011;18686;53.084;8.872;2023-06-10T02:06:23;9.45;;;4.88;;
32186;SDS011;18686;53.084;8.872;2023-06-10T02:08:52;9.02;;;5.18;;
32186;SDS011;18686;53.084;8.872;2023-06-10T02:11:21;10.30;;;4.93;;
32186;SDS011;18686;53.084;8.872;2023-06-10T02:13:50;11.05;;;4.80;;
32186;SDS011;18686;53.084;8.872;2023-06-10T02:16:37;9.45;;;4.80;;
32186;SDS011;18686;53.084;8.872;2023-06-10T02:19:25;11.25;;;5.45;;
32186;SDS011;18686;53.084;8.872;2023-06-10T02:21:54;8.18;;;5.03;;
32186;SDS011;18686;53.084;8.872;2023-06-10T02:24:40;8.23;;;4.88;;
32186;SDS011;18686;53.084;8.872;2023-06-10T02:27:10;9.82;;;4.85;;
32186;SDS011;18686;53.084;8.872;2023-06-10T02:29:38;11.13;;;4.90;;
32186;SDS011;18686;53.084;8.872;2023-06-10T02:32:07;11.98;;;4.90;;
32186;SDS011;18686;53.084;8.872;2023-06-10T02:34:55;10.70;;;5.10;;
32186;SDS011;18686;53.084;8.872;2023-06-10T02:37:42;12.07;;;5.05;;
32186;SDS011;18686;53.084;8.872;2023-06-10T02:40:29;11.95;;;5.90;;
32186;SDS011;18686;53.084;8.872;2023-06-10T02:42:59;15.57;;;6.90;;
32186;SDS011;18686;53.084;8.872;2023-06-10T02:45:27;15.43;;;6.10;;
32186;SDS011;18686;53.084;8.872;2023-06-10T02:47:57;11.23;;;6.15;;
32186;SDS011;18686;53.084;8.872;2023-06-10T02:50:44;11.07;;;5.30;;
32186;SDS011;18686;53.084;8.872;2023-06-10T02:53:31;19.15;;;7.43;;
32186;SDS011;18686;53.084;8.872;2023-06-10T02:56:05;11.40;;;6.88;;
32186;SDS011;18686;53.084;8.872;2023-06-10T02:58:37;16.48;;;7.55;;
32186;SDS011;18686;53.084;8.872;2023-06-10T03:01:07;12.82;;;6.68;;
32186;SDS011;18686;53.084;8.872;2023-06-10T03:03:55;14.75;;;7.30;;
32186;SDS011;18686;53.084;8.872;2023-06-10T03:06:23;12.68;;;6.45;;
32186;SDS011;18686;53.084;8.872;2023-06-10T03:09:11;12.88;;;6.90;;
32186;SDS011;18686;53.084;8.872;2023-06-10T03:11:42;12.32;;;6.65;;
32186;SDS011;18686;53.084;8.872;2023-06-10T03:14:30;11.90;;;6.32;;
32186;SDS011;18686;53.084;8.872;2023-06-10T03:17:16;13.05;;;6.35;;
32186;SDS011;18686;53.084;8.872;2023-06-10T03:20:03;11.43;;;6.05;;
32186;SDS011;18686;53.084;8.872;2023-06-10T03:22:50;12.38;;;6.30;;
32186;SDS011;18686;53.084;8.872;2023-06-10T03:25:37;9.65;;;5.88;;
32186;SDS011;18686;53.084;8.872;2023-06-10T03:28:05;12.10;;;6.22;;
32186;SDS011;18686;53.084;8.872;2023-06-10T03:30:53;10.73;;;6.40;;
32186;SDS011;18686;53.084;8.872;2023-06-10T03:33:24;9.20;;;6.45;;
32186;SDS011;18686;53.084;8.872;2023-06-10T03:35:52;11.60;;;5.70;;
32186;SDS011;18686;53.084;8.872;2023-06-10T03:38:22;10.90;;;4.90;;
32186;SDS011;18686;53.084;8.872;2023-06-10T03:41:09;13.95;;;5.68;;
32186;SDS011;18686;53.084;8.872;2023-06-10T03:43:56;10.48;;;5.80;;
32186;SDS011;18686;53.084;8.872;2023-06-10T03:46:44;10.90;;;6.07;;
32186;SDS011;18686;53.084;8.872;2023-06-10T03:49:12;7.28;;;4.70;;
32186;SDS011;18686;53.084;8.872;2023-06-10T03:51:42;12.20;;;5.45;;
32186;SDS011;18686;53.084;8.872;2023-06-10T03:54:29;11.85;;;5.55;;
32186;SDS011;18686;53.084;8.872;2023-06-10T03:57:16;10.57;;;5.38;;
32186;SDS011;18686;53.084;8.872;2023-06-10T03:59:45;9.70;;;5.05;;
32186;SDS011;18686;53.084;8.872;2023-06-10T04:02:14;14.20;;;5.05;;
32186;SDS011;18686;53.084;8.872;2023-06-10T04:04:43;10.98;;;4.88;;
32186;SDS011;18686;53.084;8.872;2023-06-10T04:07:13;7.88;;;4.20;;
32186;SDS011;18686;53.084;8.872;2023-06-10T04:09:41;12.50;;;4.72;;
32186;SDS011;18686;53.084;8.872;2023-06-10T04:12:28;12.88;;;7.32;;
32186;SDS011;18686;53.084;8.872;2023-06-10T04:15:15;9.25;;;4.85;;
32186;SDS011;18686;53.084;8.872;2023-06-10T04:17:45;9.77;;;5.70;;
32186;SDS011;18686;53.084;8.872;2023-06-10T04:20:13;13.27;;;8.00;;
32186;SDS011;18686;53.084;8.872;2023-06-10T04:22:45;8.45;;;4.65;;
32186;SDS011;18686;53.084;8.872;2023-06-10T04:25:32;8.50;;;4.60;;
32186;SDS011;18686;53.084;8.872;2023-06-10T04:28:18;9.27;;;4.60;;
32186;SDS011;18686;53.084;8.872;2023-06-10T04:30:48;9.15;;;4.38;;
32186;SDS011;18686;53.084;8.872;2023-06-10T04:33:17;7.97;;;4.20;;
32186;SDS011;18686;53.084;8.872;2023-06-10T04:35:45;8.02;;;4.25;;
32186;SDS011;18686;53.084;8.872;2023-06-10T04:38:14;8.82;;;3.85;;
32186;SDS011;18686;53.084;8.872;2023-06-10T04:40:43;9.65;;;4.45;;
32186;SDS011;18686;53.084;8.872;2023-06-10T04:43:14;14.90;;;4.97;;
32186;SDS011;18686;53.084;8.872;2023-06-10T04:45:44;8.43;;;4.55;;
32186;SDS011;18686;53.084;8.872;2023-06-10T04:48:32;10.60;;;4.63;;
32186;SDS011;18686;53.084;8.872;2023-06-10T04:51:21;8.88;;;4.35;;
32186;SDS011;18686;53.084;8.872;2023-06-10T04:54:08;11.30;;;5.00;;
32186;SDS011;18686;53.084;8.872;2023-06-10T04:56:36;9.20;;;4.20;;
32186;SDS011;18686;53.084;8.872;2023-06-10T04:59:24;9.65;;;5.00;;
32186;SDS011;18686;53.084;8.872;2023-06-10T05:01:52;8.18;;;4.45;;
32186;SDS011;18686;53.084;8.872;2023-06-10T05:04:22;9.90;;;4.63;;
32186;SDS011;18686;53.084;8.872;2023-06-10T05:07:09;8.95;;;4.30;;
32186;SDS011;18686;53.084;8.872;2023-06-10T05:09:55;7.68;;;3.47;;
32186;SDS011;18686;53.084;8.872;2023-06-10T05:12:43;10.38;;;4.50;;
32186;SDS011;18686;53.084;8.872;2023-06-10T05:15:29;7.50;;;4.10;;
32186;SDS011;18686;53.084;8.872;2023-06-10T05:17:58;8.07;;;3.85;;
32186;SDS011;18686;53.084;8.872;2023-06-10T05:20:27;11.20;;;4.68;;
32186;SDS011;18686;53.084;8.872;2023-06-10T05:22:56;12.00;;;4.82;;
32186;SDS011;18686;53.084;8.872;2023-06-10T05:25:25;9.18;;;3.83;;
32186;SDS011;18686;53.084;8.872;2023-06-10T05:28:12;14.23;;;4.95;;
32186;SDS011;18686;53.084;8.872;2023-06-10T05:30:59;11.82;;;4.53;;
32186;SDS011;18686;53.084;8.872;2023-06-10T05:33:28;11.70;;;4.45;;
32186;SDS011;18686;53.084;8.872;2023-06-10T05:35:57;9.88;;;4.65;;
32186;SDS011;18686;53.084;8.872;2023-06-10T05:38:44;9.07;;;4.07;;
32186;SDS011;18686;53.084;8.872;2023-06-10T05:41:12;9.85;;;3.85;;
32186;SDS011;18686;53.084;8.872;2023-06-10T05:43:59;8.38;;;4.05;;
32186;SDS011;18686;53.084;8.872;2023-06-10T05:46:46;7.93;;;3.80;;
32186;SDS011;18686;53.084;8.872;2023-06-10T05:49:33;8.43;;;4.20;;
32186;SDS011;18686;53.084;8.872;2023-06-10T05:52:21;8.43;;;4.40;;
32186;SDS011;18686;53.084;8.872;2023-06-10T05:54:50;9.70;;;4.30;;
32186;SDS011;18686;53.084;8.872;2023-06-10T05:57:20;9.00;;;3.83;;
32186;SDS011;18686;53.084;8.872;2023-06-10T06:00:08;8.65;;;3.50;;
32186;SDS011;18686;53.084;8.872;2023-06-10T06:02:40;7.75;;;4.00;;
32186;SDS011;18686;53.084;8.872;2023-06-10T06:05:27;11.02;;;4.40;;
32186;SDS011;18686;53.084;8.872;2023-06-10T06:08:02;9.38;;;3.80;;
32186;SDS011;18686;53.084;8.872;2023-06-10T06:10:31;7.63;;;3.70;;
32186;SDS011;18686;53.084;8.872;2023-06-10T06:13:17;7.10;;;4.13;;
32186;SDS011;18686;53.084;8.872;2023-06-10T06:15:46;10.40;;;4.50;;
32186;SDS011;18686;53.084;8.872;2023-06-10T06:18:32;7.88;;;3.60;;
32186;SDS011;18686;53.084;8.872;2023-06-10T06:21:19;9.60;;;4.05;;
32186;SDS011;18686;53.084;8.872;2023-06-10T06:24:08;11.40;;;4.28;;
32186;SDS011;18686;53.084;8.872;2023-06-10T06:26:36;7.43;;;3.70;;
32186;SDS011;18686;53.084;8.872;2023-06-10T06:29:04;5.93;;;3.60;;
32186;SDS011;18686;53.084;8.872;2023-06-10T06:31:51;9.90;;;4.03;;
32186;SDS011;18686;53.084;8.872;2023-06-10T06:34:38;8.82;;;4.00;;
32186;SDS011;18686;53.084;8.872;2023-06-10T06:37:25;8.63;;;4.57;;
32186;SDS011;18686;53.084;8.872;2023-06-10T06:40:13;5.93;;;3.70;;
32186;SDS011;18686;53.084;8.872;2023-06-10T06:43:00;6.57;;;3.42;;
32186;SDS011;18686;53.084;8.872;2023-06-10T06:45:47;4.93;;;3.00;;
32186;SDS011;18686;53.084;8.872;2023-06-10T06:48:34;11.80;;;4.25;;
32186;SDS011;18686;53.084;8.872;2023-06-10T06:51:21;7.88;;;3.55;;
32186;SDS011;18686;53.084;8.872;2023-06-10T06:54:08;8.65;;;3.92;;
32186;SDS011;18686;53.084;8.872;2023-06-10T06:56:39;6.60;;;3.10;;
32186;SDS011;18686;53.084;8.872;2023-06-10T06:59:09;12.52;;;4.32;;
32186;SDS011;18686;53.084;8.872;2023-06-10T07:01:40;7.95;;;3.00;;
32186;SDS011;18686;53.084;8.872;2023-06-10T07:04:26;7.47;;;3.65;;
32186;SDS011;18686;53.084;8.872;2023-06-10T07:06:55;6.35;;;3.28;;
32186;SDS011;18686;53.084;8.872;2023-06-10T07:09:41;6.10;;;2.70;;
32186;SDS011;18686;53.084;8.872;2023-06-10T07:12:30;6.75;;;3.03;;
32186;SDS011;18686;53.084;8.872;2023-06-10T07:15:17;8.48;;;3.22;;
32186;SDS011;18686;53.084;8.872;2023-06-10T07:17:45;12.15;;;3.17;;
32186;SDS011;18686;53.084;8.872;2023-06-10T07:20:14;7.57;;;3.17;;
32186;SDS011;18686;53.084;8.872;2023-06-10T07:22:42;5.90;;;2.78;;
32186;SDS011;18686;53.084;8.872;2023-06-10T07:25:10;8.55;;;3.60;;
32186;SDS011;18686;53.084;8.872;2023-06-10T07:27:59;10.82;;;4.22;;
32186;SDS011;18686;53.084;8.872;2023-06-10T07:30:27;6.97;;;3.60;;
32186;SDS011;18686;53.084;8.872;2023-06-10T07:32:55;7.80;;;3.28;;
32186;SDS011;18686;53.084;8.872;2023-06-10T07:35:24;5.15;;;3.08;;
32186;SDS011;18686;53.084;8.872;2023-06-10T07:37:52;6.65;;;3.03;;
32186;SDS011;18686;53.084;8.872;2023-06-10T07:40:20;10.07;;;3.35;;
32186;SDS011;18686;53.084;8.872;2023-06-10T07:43:08;5.40;;;3.55;;
32186;SDS011;18686;53.084;8.872;2023-06-10T07:45:36;9.55;;;4.82;;
32186;SDS011;18686;53.084;8.872;2023-06-10T07:48:07;6.65;;;3.60;;
32186;SDS011;18686;53.084;8.872;2023-06-10T07:50:54;11.10;;;3.40;;
32186;SDS011;18686;53.084;8.872;2023-06-10T07:53:23;4.97;;;2.88;;
32186;SDS011;18686;53.084;8.872;2023-06-10T07:55:51;8.05;;;3.00;;
32186;SDS011;18686;53.084;8.872;2023-06-10T07:58:39;7.65;;;3.30;;
32186;SDS011;18686;53.084;8.872;2023-06-10T08:01:07;7.30;;;3.13;;
32186;SDS011;18686;53.084;8.872;2023-06-10T08:03:54;6.10;;;3.22;;
32186;SDS011;18686;53.084;8.872;2023-06-10T08:06:41;6.85;;;3.70;;
32186;SDS011;18686;53.084;8.872;2023-06-10T08:09:09;8.60;;;3.47;;
32186;SDS011;18686;53.084;8.872;2023-06-10T08:11:38;4.25;;;2.88;;
32186;SDS011;18686;53.084;8.872;2023-06-10T08:14:26;5.25;;;2.88;;
32186;SDS011;18686;53.084;8.872;2023-06-10T08:16:54;7.85;;;3.20;;
32186;SDS011;18686;53.084;8.872;2023-06-10T08:19:23;8.90;;;2.85;;
32186;SDS011;18686;53.084;8.872;2023-06-10T08:22:09;10.15;;;5.18;;
32186;SDS011;18686;53.084;8.872;2023-06-10T08:24:38;7.95;;;2.75;;
32186;SDS011;18686;53.084;8.872;2023-06-10T08:27:24;6.55;;;3.25;;
32186;SDS011;18686;53.084;8.872;2023-06-10T08:29:54;6.15;;;2.72;;
32186;SDS011;18686;53.084;8.872;2023-06-10T08:32:22;5.32;;;2.50;;
32186;SDS011;18686;53.084;8.872;2023-06-10T08:35:09;7.60;;;2.80;;
32186;SDS011;18686;53.084;8.872;2023-06-10T08:37:38;6.38;;;3.05;;
32186;SDS011;18686;53.084;8.872;2023-06-10T08:40:08;6.70;;;2.53;;
32186;SDS011;18686;53.084;8.872;2023-06-10T08:42:38;6.97;;;2.83;;
32186;SDS011;18686;53.084;8.872;2023-06-10T08:45:30;5.75;;;2.80;;
32186;SDS011;18686;53.084;8.872;2023-06-10T08:47:58;5.07;;;2.55;;
32186;SDS011;18686;53.084;8.872;2023-06-10T08:50:29;7.38;;;2.72;;
32186;SDS011;18686;53.084;8.872;2023-06-10T08:52:58;3.15;;;2.08;;
32186;SDS011;18686;53.084;8.872;2023-06-10T08:55:46;8.93;;;3.65;;
32186;SDS011;18686;53.084;8.872;2023-06-10T08:58:37;5.00;;;2.60;;
32186;SDS011;18686;53.084;8.872;2023-06-10T09:01:10;6.40;;;2.83;;
32186;SDS011;18686;53.084;8.872;2023-06-10T09:03:58;9.45;;;4.28;;
32186;SDS011;18686;53.084;8.872;2023-06-10T09:06:46;5.63;;;2.80;;
32186;SDS011;18686;53.084;8.872;2023-06-10T09:09:34;4.05;;;2.60;;
32186;SDS011;18686;53.084;8.872;2023-06-10T09:12:22;4.13;;;2.63;;
32186;SDS011;18686;53.084;8.872;2023-06-10T09:14:50;5.90;;;4.03;;
32186;SDS011;18686;53.084;8.872;2023-06-10T09:17:38;5.65;;;2.33;;
32186;SDS011;18686;53.084;8.872;2023-06-10T09:20:26;8.43;;;3.08;;
32186;SDS011;18686;53.084;8.872;2023-06-10T09:22:54;7.15;;;2.95;;
32186;SDS011;18686;53.084;8.872;2023-06-10T09:25:34;6.80;;;2.67;;
32186;SDS011;18686;53.084;8.872;2023-06-10T09:28:04;4.05;;;2.60;;
32186;SDS011;18686;53.084;8.872;2023-06-10T09:30:40;6.43;;;2.53;;
32186;SDS011;18686;53.084;8.872;2023-06-10T09:33:27;9.82;;;2.53;;
32186;SDS011;18686;53.084;8.872;2023-06-10T09:35:56;6.68;;;2.28;;
32186;SDS011;18686;53.084;8.872;2023-06-10T09:38:46;5.43;;;2.65;;
32186;SDS011;18686;53.084;8.872;2023-06-10T09:41:18;7.30;;;2.60;;
32186;SDS011;18686;53.084;8.872;2023-06-10T09:44:06;9.00;;;2.30;;
32186;SDS011;18686;53.084;8.872;2023-06-10T09:46:57;9.53;;;2.57;;
32186;SDS011;18686;53.084;8.872;2023-06-10T09:49:46;6.53;;;2.88;;
32186;SDS011;18686;53.084;8.872;2023-06-10T09:52:14;4.25;;;2.03;;
32186;SDS011;18686;53.084;8.872;2023-06-10T09:54:50;6.78;;;2.47;;
32186;SDS011;18686;53.084;8.872;2023-06-10T09:57:38;4.60;;;2.25;;
32186;SDS011;18686;53.084;8.872;2023-06-10T10:00:08;4.13;;;2.33;;
32186;SDS011;18686;53.084;8.872;2023-06-10T10:02:44;5.03;;;2.42;;
32186;SDS011;18686;53.084;8.872;2023-06-10T10:05:34;5.15;;;2.25;;
32186;SDS011;18686;53.084;8.872;2023-06-10T10:08:21;7.07;;;2.47;;
32186;SDS011;18686;53.084;8.872;2023-06-10T10:10:50;3.05;;;2.03;;
32186;SDS011;18686;53.084;8.872;2023-06-10T10:13:18;6.65;;;2.20;;
32186;SDS011;18686;53.084;8.872;2023-06-10T10:16:07;4.20;;;2.10;;
32186;SDS011;18686;53.084;8.872;2023-06-10T10:18:59;6.40;;;2.60;;
32186;SDS011;18686;53.084;8.872;2023-06-10T10:21:53;4.30;;;2.53;;
32186;SDS011;18686;53.084;8.872;2023-06-10T10:24:44;4.57;;;2.17;;
32186;SDS011;18686;53.084;8.872;2023-06-10T10:27:18;4.07;;;2.40;;
32186;SDS011;18686;53.084;8.872;2023-06-10T10:29:50;6.27;;;2.63;;
32186;SDS011;18686;53.084;8.872;2023-06-10T10:32:21;3.17;;;1.70;;
32186;SDS011;18686;53.084;8.872;2023-06-10T10:34:58;4.22;;;2.30;;
32186;SDS011;18686;53.084;8.872;2023-06-10T10:37:36;4.47;;;1.98;;
32186;SDS011;18686;53.084;8.872;2023-06-10T10:40:04;3.72;;;2.00;;
32186;SDS011;18686;53.084;8.872;2023-06-10T10:42:53;5.50;;;2.30;;
32186;SDS011;18686;53.084;8.872;2023-06-10T10:45:42;5.05;;;2.03;;
32186;SDS011;18686;53.084;8.872;2023-06-10T10:48:12;4.75;;;2.10;;
32186;SDS011;18686;53.084;8.872;2023-06-10T10:50:42;3.65;;;2.00;;
32186;SDS011;18686;53.084;8.872;2023-06-10T10:53:11;6.07;;;2.35;;
32186;SDS011;18686;53.084;8.872;2023-06-10T10:56:06;3.83;;;2.20;;
32186;SDS011;18686;53.084;8.872;2023-06-10T10:58:39;3.38;;;2.08;;
32186;SDS011;18686;53.084;8.872;2023-06-10T11:01:25;2.58;;;2.35;;
32186;SDS011;18686;53.084;8.872;2023-06-10T11:04:26;3.30;;;2.58;;
32186;SDS011;18686;53.084;8.872;2023-06-10T11:07:13;2.30;;;2.10;;
32186;SDS011;18686;53.084;8.872;2023-06-10T11:10:05;3.17;;;2.70;;
32186;SDS011;18686;53.084;8.872;2023-06-10T11:12:41;4.57;;;3.00;;
32186;SDS011;18686;53.084;8.872;2023-06-10T11:15:17;4.32;;;3.05;;
32186;SDS011;18686;53.084;8.872;2023-06-10T11:18:22;4.13;;;3.00;;
32186;SDS011;18686;53.084;8.872;2023-06-10T11:20:51;3.25;;;2.95;;
32186;SDS011;18686;53.084;8.872;2023-06-10T11:23:43;3.80;;;3.38;;
32186;SDS011;18686;53.084;8.872;2023-06-10T11:26:31;4.03;;;3.70;;
32186;SDS011;18686;53.084;8.872;2023-06-10T11:29:02;4.07;;;3.70;;
32186;SDS011;18686;53.084;8.872;2023-06-10T11:31:53;4.47;;;4.03;;
32186;SDS011;18686;53.084;8.872;2023-06-10T11:34:40;8.63;;;4.45;;
32186;SDS011;18686;53.084;8.872;2023-06-10T11:37:27;3.35;;;2.90;;
32186;SDS011;18686;53.084;8.872;2023-06-10T11:39:55;3.78;;;3.17;;
32186;SDS011;18686;53.084;8.872;2023-06-10T11:42:44;4.00;;;3.63;;
32186;SDS011;18686;53.084;8.872;2023-06-10T11:45:32;4.72;;;3.72;;
32186;SDS011;18686;53.084;8.872;2023-06-10T11:48:19;3.80;;;3.50;;
32186;SDS011;18686;53.084;8.872;2023-06-10T11:51:06;4.65;;;4.30;;
32186;SDS011;18686;53.084;8.872;2023-06-10T11:53:53;4.63;;;4.22;;
32186;SDS011;18686;53.084;8.872;2023-06-10T11:56:22;5.10;;;4.68;;
32186;SDS011;18686;53.084;8.872;2023-06-10T11:58:54;6.63;;;6.00;;
32186;SDS011;18686;53.084;8.872;2023-06-10T12:01:43;6.10;;;5.53;;
32186;SDS011;18686;53.084;8.872;2023-06-10T12:04:13;6.50;;;5.27;;
32186;SDS011;18686;53.084;8.872;2023-06-10T12:07:04;6.43;;;5.07;;
32186;SDS011;18686;53.084;8.872;2023-06-10T12:09:58;6.25;;;5.45;;
32186;SDS011;18686;53.084;8.872;2023-06-10T12:13:03;6.03;;;5.53;;
32186;SDS011;18686;53.084;8.872;2023-06-10T12:15:33;6.60;;;6.00;;
32186;SDS011;18686;53.084;8.872;2023-06-10T12:18:19;6.72;;;6.07;;
32186;SDS011;18686;53.084;8.872;2023-06-10T12:20:49;6.38;;;5.88;;
32186;SDS011;18686;53.084;8.872;2023-06-10T12:23:18;6.13;;;5.63;;
32186;SDS011;18686;53.084;8.872;2023-06-10T12:26:05;6.63;;;6.10;;
32186;SDS011;18686;53.084;8.872;2023-06-10T12:28:52;6.88;;;6.28;;
32186;SDS011;18686;53.084;8.872;2023-06-10T12:31:53;7.13;;;6.53;;
32186;SDS011;18686;53.084;8.872;2023-06-10T12:34:45;6.38;;;5.88;;
32186;SDS011;18686;53.084;8.872;2023-06-10T12:37:14;6.80;;;6.30;;
32186;SDS011;18686;53.084;8.872;2023-06-10T12:40:01;6.68;;;6.15;;
32186;SDS011;18686;53.084;8.872;2023-06-10T12:42:51;5.82;;;5.43;;
32186;SDS011;18686;53.084;8.872;2023-06-10T12:45:38;6.15;;;5.75;;
32186;SDS011;18686;53.084;8.872;2023-06-10T12:48:11;5.82;;;5.32;;
32186;SDS011;18686;53.084;8.872;2023-06-10T12:50:49;5.82;;;5.32;;
32186;SDS011;18686;53.084;8.872;2023-06-10T12:53:37;5.88;;;5.38;;
32186;SDS011;18686;53.084;8.872;2023-06-10T12:56:06;6.38;;;5.78;;
32186;SDS011;18686;53.084;8.872;2023-06-10T12:58:53;6.60;;;5.97;;
32186;SDS011;18686;53.084;8.872;2023-06-10T13:01:21;6.28;;;5.60;;
32186;SDS011;18686;53.084;8.872;2023-06-10T13:03:51;5.72;;;5.43;;
32186;SDS011;18686;53.084;8.872;2023-06-10T13:06:38;6.22;;;5.72;;
32186;SDS011;18686;53.084;8.872;2023-06-10T13:09:24;5.82;;;5.38;;
32186;SDS011;18686;53.084;8.872;2023-06-10T13:12:11;6.65;;;6.03;;
32186;SDS011;18686;53.084;8.872;2023-06-10T13:14:42;7.05;;;6.50;;
32186;SDS011;18686;53.084;8.872;2023-06-10T13:17:28;6.03;;;5.60;;
32186;SDS011;18686;53.084;8.872;2023-06-10T13:19:58;7.43;;;5.78;;
32186;SDS011;18686;53.084;8.872;2023-06-10T13:22:45;5.18;;;4.78;;
32186;SDS011;18686;53.084;8.872;2023-06-10T13:25:14;5.68;;;5.13;;
32186;SDS011;18686;53.084;8.872;2023-06-10T13:27:42;4.68;;;4.22;;
32186;SDS011;18686;53.084;8.872;2023-06-10T13:30:29;5.15;;;4.70;;
32186;SDS011;18686;53.084;8.872;2023-06-10T13:32:57;5.30;;;4.90;;
32186;SDS011;18686;53.084;8.872;2023-06-10T13:35:27;5.18;;;4.43;;
32186;SDS011;18686;53.084;8.872;2023-06-10T13:38:14;5.10;;;4.65;;
32186;SDS011;18686;53.084;8.872;2023-06-10T13:41:01;6.28;;;4.28;;
32186;SDS011;18686;53.084;8.872;2023-06-10T13:43:30;4.68;;;4.07;;
32186;SDS011;18686;53.084;8.872;2023-06-10T13:45:58;5.00;;;4.60;;
32186;SDS011;18686;53.084;8.872;2023-06-10T13:48:45;6.00;;;4.60;;
32186;SDS011;18686;53.084;8.872;2023-06-10T13:51:15;5.28;;;4.88;;
32186;SDS011;18686;53.084;8.872;2023-06-10T13:54:02;5.30;;;4.90;;
32186;SDS011;18686;53.084;8.872;2023-06-10T13:56:49;5.18;;;4.78;;
32186;SDS011;18686;53.084;8.872;2023-06-10T13:59:18;5.00;;;4.60;;
32186;SDS011;18686;53.084;8.872;2023-06-10T14:01:46;4.00;;;3.70;;
32186;SDS011;18686;53.084;8.872;2023-06-10T14:04:15;3.97;;;3.67;;
32186;SDS011;18686;53.084;8.872;2023-06-10T14:07:03;4.95;;;3.95;;
32186;SDS011;18686;53.084;8.872;2023-06-10T14:09:31;4.17;;;3.80;;
32186;SDS011;18686;53.084;8.872;2023-06-10T14:12:18;8.00;;;4.53;;
32186;SDS011;18686;53.084;8.872;2023-06-10T14:14:46;6.65;;;4.13;;
32186;SDS011;18686;53.084;8.872;2023-06-10T14:17:15;3.95;;;3.55;;
32186;SDS011;18686;53.084;8.872;2023-06-10T14:20:01;3.63;;;3.35;;
32186;SDS011;18686;53.084;8.872;2023-06-10T14:22:50;4.88;;;3.15;;
32186;SDS011;18686;53.084;8.872;2023-06-10T14:25:37;3.67;;;2.90;;
32186;SDS011;18686;53.084;8.872;2023-06-10T14:28:24;3.78;;;2.78;;
32186;SDS011;18686;53.084;8.872;2023-06-10T14:30:54;3.15;;;2.78;;
32186;SDS011;18686;53.084;8.872;2023-06-10T14:33:24;5.30;;;3.00;;
32186;SDS011;18686;53.084;8.872;2023-06-10T14:36:10;4.10;;;2.75;;
32186;SDS011;18686;53.084;8.872;2023-06-10T14:38:40;4.60;;;2.60;;
32186;SDS011;18686;53.084;8.872;2023-06-10T14:41:08;4.13;;;2.60;;
32186;SDS011;18686;53.084;8.872;2023-06-10T14:43:55;6.50;;;2.03;;
32186;SDS011;18686;53.084;8.872;2023-06-10T14:46:24;5.55;;;2.60;;
32186;SDS011;18686;53.084;8.872;2023-06-10T14:48:52;7.35;;;2.45;;
32186;SDS011;18686;53.084;8.872;2023-06-10T14:51:20;4.45;;;2.65;;
32186;SDS011;18686;53.084;8.872;2023-06-10T14:54:08;5.25;;;3.20;;
32186;SDS011;18686;53.084;8.872;2023-06-10T14:56:55;5.65;;;2.90;;
32186;SDS011;18686;53.084;8.872;2023-06-10T14:59:42;7.25;;;3.35;;
32186;SDS011;18686;53.084;8.872;2023-06-10T15:02:10;5.50;;;4.63;;
32186;SDS011;18686;53.084;8.872;2023-06-10T15:04:57;8.27;;;3.47;;
32186;SDS011;18686;53.084;8.872;2023-06-10T15:07:44;5.60;;;3.60;;
32186;SDS011;18686;53.084;8.872;2023-06-10T15:10:14;4.95;;;3.60;;
32186;SDS011;18686;53.084;8.872;2023-06-10T15:13:02;6.10;;;3.17;;
32186;SDS011;18686;53.084;8.872;2023-06-10T15:15:49;5.57;;;3.33;;
32186;SDS011;18686;53.084;8.872;2023-06-10T15:18:36;6.88;;;3.80;;
32186;SDS011;18686;53.084;8.872;2023-06-10T15:21:05;7.03;;;3.88;;
32186;SDS011;18686;53.084;8.872;2023-06-10T15:23:52;5.10;;;3.50;;
32186;SDS011;18686;53.084;8.872;2023-06-10T15:26:21;7.40;;;3.55;;
32186;SDS011;18686;53.084;8.872;2023-06-10T15:28:49;7.28;;;3.45;;
32186;SDS011;18686;53.084;8.872;2023-06-10T15:31:36;9.25;;;3.47;;
32186;SDS011;18686;53.084;8.872;2023-06-10T15:34:23;8.95;;;3.60;;
32186;SDS011;18686;53.084;8.872;2023-06-10T15:37:10;12.45;;;3.95;;
32186;SDS011;18686;53.084;8.872;2023-06-10T16:15:37;5.85;;;3.70;;
32186;SDS011;18686;53.084;8.872;2023-06-10T16:18:24;8.48;;;3.70;;
32186;SDS011;18686;53.084;8.872;2023-06-10T16:21:11;7.60;;;4.20;;
32186;SDS011;18686;53.084;8.872;2023-06-10T16:23:39;7.03;;;4.78;;
32186;SDS011;18686;53.084;8.872;2023-06-10T16:26:08;7.85;;;4.45;;
32186;SDS011;18686;53.084;8.872;2023-06-10T16:28:54;6.38;;;3.97;;